Time;durP1;ratioP1;P1;durP2;ratioP2;P2;SDS_P1;SDS_P2;PMS_P1;PMS_P2;Temp;Humidity;BMP_temperature;BMP_pressure;BME280_temperature;BME280_humidity;BME280_pressure;Samples;Min_cycle;Max_cycle;Signal;HPM_P1;HPM_P2
2022/05/19 00:01:39;;;;;;;10.50;7.57;;;;;;;8.89;91.45;101226.50;5090263;28;20031;-33
2022/05/19 00:04:04;;;;;;;11.82;7.75;;;;;;;8.77;90.00;101221.63;5090231;28;20035;-33
2022/05/19 00:06:29;;;;;;;11.50;7.63;;;;;;;8.74;90.26;101208.66;5108678;28;20031;-28
2022/05/19 00:08:55;;;;;;;11.48;7.57;;;;;;;8.93;90.41;101225.13;5108600;28;20035;-31
2022/05/19 00:11:31;;;;;;;11.18;7.45;;;;;;;8.73;91.21;101230.97;5108534;28;20491;-31
2022/05/19 00:13:56;;;;;;;10.27;7.22;;;;;;;8.66;91.49;101208.72;5090121;28;20066;-29
2022/05/19 00:16:22;;;;;;;9.75;6.47;;;;;;;8.49;90.56;101218.66;5108948;28;20056;-30
2022/05/19 00:18:47;;;;;;;9.98;6.90;;;;;;;8.57;90.79;101231.06;5108128;28;20032;-28
2022/05/19 00:21:13;;;;;;;10.93;7.07;;;;;;;8.47;91.35;101198.56;5089795;28;20097;-29
2022/05/19 00:23:38;;;;;;;10.70;6.45;;;;;;;8.47;90.27;101209.22;5108039;28;20738;-31
2022/05/19 00:26:03;;;;;;;9.38;6.40;;;;;;;8.33;90.18;101214.25;5107947;28;20467;-31
2022/05/19 00:28:29;;;;;;;12.27;6.82;;;;;;;8.25;90.77;101208.97;5108008;28;20070;-32
2022/05/19 00:30:55;;;;;;;10.73;6.10;;;;;;;8.60;89.89;101225.38;5108305;28;20479;-32
2022/05/19 00:33:20;;;;;;;8.75;5.95;;;;;;;8.68;89.18;101220.00;5107995;28;20634;-31
2022/05/19 00:35:46;;;;;;;12.68;6.80;;;;;;;8.65;88.82;101229.19;5089440;28;20041;-30
2022/05/19 00:38:11;;;;;;;8.75;5.97;;;;;;;8.56;87.85;101213.44;5089542;28;20239;-29
2022/05/19 00:40:38;;;;;;;11.80;6.93;;;;;;;8.66;88.15;101230.00;5107287;28;20130;-35
2022/05/19 00:43:04;;;;;;;10.70;6.07;;;;;;;8.39;88.98;101240.13;5089499;28;20032;-32
2022/05/19 00:45:53;;;;;;;10.80;6.43;;;;;;;8.53;89.06;101216.47;5089344;28;20118;-29
2022/05/19 00:48:25;;;;;;;10.88;6.68;;;;;;;8.58;89.99;101238.03;5107889;28;20491;-31
2022/05/19 00:50:56;;;;;;;8.88;5.82;;;;;;;8.20;90.83;101240.56;5088885;28;20507;-31
2022/05/19 00:53:28;;;;;;;9.85;5.80;;;;;;;8.32;90.76;101238.34;5089242;28;20126;-29
2022/05/19 00:56:01;;;;;;;9.85;5.38;;;;;;;8.69;88.32;101223.50;5089429;28;20471;-29
2022/05/19 00:58:28;;;;;;;9.55;6.15;;;;;;;8.58;88.79;101233.56;5089445;28;20030;-29
2022/05/19 01:00:55;;;;;;;9.23;6.07;;;;;;;8.66;87.03;101230.00;5088831;28;20069;-28
2022/05/19 01:03:22;;;;;;;9.45;6.30;;;;;;;8.35;87.61;101238.81;5089107;28;20026;-29
2022/05/19 01:06:11;;;;;;;11.10;6.55;;;;;;;8.57;88.16;101236.41;5088686;28;20574;-31
2022/05/19 01:08:55;;;;;;;10.68;6.45;;;;;;;8.50;88.39;101230.97;5088917;28;20537;-32
2022/05/19 01:11:21;;;;;;;9.35;5.97;;;;;;;8.60;87.34;101220.91;5089102;28;20034;-30
2022/05/19 01:13:46;;;;;;;11.05;6.82;;;;;;;8.50;87.93;101208.84;5089072;28;20023;-29
2022/05/19 01:16:13;;;;;;;10.07;6.65;;;;;;;8.29;89.08;101230.72;5107013;28;20031;-31
2022/05/19 01:18:39;;;;;;;10.07;6.45;;;;;;;8.37;89.15;101239.47;5088956;28;20034;-30
2022/05/19 01:21:10;;;;;;;13.68;7.32;;;;;;;8.14;89.52;101209.38;5088735;28;20042;-30
2022/05/19 01:23:53;;;;;;;9.93;5.82;;;;;;;8.27;89.74;101230.06;5107219;28;20138;-29
2022/05/19 01:26:27;;;;;;;10.07;6.15;;;;;;;8.27;90.21;101235.38;5088870;28;20031;-33
2022/05/19 01:28:55;;;;;;;14.48;6.63;;;;;;;8.20;89.59;101240.56;5107100;28;20028;-29
2022/05/19 01:31:28;;;;;;;11.48;6.90;;;;;;;8.25;89.03;101233.75;5088701;28;20132;-29
2022/05/19 01:33:54;;;;;;;10.75;7.05;;;;;;;8.13;89.58;101226.31;5088846;28;20035;-31
2022/05/19 01:36:19;;;;;;;9.52;6.68;;;;;;;8.18;90.00;101230.13;5088452;28;20035;-28
2022/05/19 01:38:51;;;;;;;12.57;6.97;;;;;;;7.99;90.45;101210.13;5106693;28;20260;-30
2022/05/19 01:42:02;;;;;;;12.00;6.93;;;;;;;8.12;89.76;101219.34;5088489;28;20019;-31
2022/05/19 01:44:49;;;;;;;11.95;6.50;;;;;;;7.95;91.62;101230.06;5063356;28;20146;-32
2022/05/19 01:47:33;;;;;;;13.53;7.30;;;;;;;7.87;92.59;101235.41;5107068;28;20046;-30
2022/05/19 01:50:22;;;;;;;13.48;7.63;;;;;;;7.90;92.27;101228.91;5107191;28;20498;-32
2022/05/19 01:53:04;;;;;;;10.40;6.28;;;;;;;7.84;92.80;101235.75;5088602;28;20112;-29
2022/05/19 01:55:48;;;;;;;12.30;7.50;;;;;;;7.92;92.21;101237.53;5088542;28;20028;-30
2022/05/19 01:58:23;;;;;;;16.80;8.30;;;;;;;8.03;91.96;101240.66;5088544;28;20036;-29
2022/05/19 02:00:55;;;;;;;10.18;6.95;;;;;;;8.00;91.66;101241.00;5106664;28;20035;-29
2022/05/19 02:03:23;;;;;;;11.93;7.28;;;;;;;8.04;91.17;101236.97;5088429;28;20051;-28
2022/05/19 02:05:53;;;;;;;;;;;;;;;7.87;92.16;101235.41;5092844;28;20084;-29
2022/05/19 02:08:47;;;;;;;12.27;6.15;;;;;;;7.91;91.24;101246.53;5092284;28;19931;-32
2022/05/19 02:11:20;;;;;;;11.07;6.00;;;;;;;7.70;91.87;101249.75;5082111;28;20035;-28
2022/05/19 02:13:45;;;;;;;10.48;6.10;;;;;;;7.42;93.71;101224.44;5110783;28;20119;-29
2022/05/19 02:16:14;;;;;;;10.50;5.95;;;;;;;7.49;93.59;101229.06;5092114;28;20118;-28
2022/05/19 02:18:42;;;;;;;9.90;5.75;;;;;;;7.53;92.84;101241.81;5091711;28;20031;-29
2022/05/19 02:21:08;;;;;;;9.07;5.97;;;;;;;7.62;91.79;101239.97;5092141;28;20035;-31
2022/05/19 02:23:35;;;;;;;10.68;6.07;;;;;;;7.70;92.24;101242.59;5092162;28;20502;-29
2022/05/19 02:26:00;;;;;;;15.93;6.70;;;;;;;7.62;92.45;101235.50;5092076;28;20036;-29
2022/05/19 02:28:31;;;;;;;8.65;5.30;;;;;;;7.47;92.17;101241.69;5091650;28;20043;-33
2022/05/19 02:30:57;;;;;;;9.70;5.50;;;;;;;7.30;92.84;101212.53;5091813;28;20514;-29
2022/05/19 02:33:23;;;;;;;10.45;5.72;;;;;;;7.37;93.20;101229.41;5091696;28;20093;-29
2022/05/19 02:35:49;;;;;;;8.77;5.20;;;;;;;7.39;92.69;101237.22;5110559;28;20039;-30
2022/05/19 02:38:16;;;;;;;8.65;5.75;;;;;;;7.39;92.39;101223.94;5110393;28;20027;-32
2022/05/19 02:40:42;;;;;;;8.10;4.90;;;;;;;7.36;92.78;101248.19;5091287;28;20578;-28
2022/05/19 02:43:09;;;;;;;11.73;5.47;;;;;;;7.35;92.84;101238.53;5091651;28;20051;-28
2022/05/19 02:45:35;;;;;;;8.15;4.45;;;;;;;7.06;93.50;101221.34;5091552;28;20033;-28
2022/05/19 02:48:01;;;;;;;9.38;5.03;;;;;;;7.18;93.14;101227.97;5091839;28;20031;-29
2022/05/19 02:50:27;;;;;;;8.13;4.72;;;;;;;7.20;93.77;101249.84;5091640;28;20038;-30
2022/05/19 02:52:53;;;;;;;8.13;5.30;;;;;;;7.16;93.42;101232.59;5091480;28;20024;-28
2022/05/19 02:55:19;;;;;;;10.13;4.95;;;;;;;7.08;93.58;101229.97;5109932;28;20803;-31
2022/05/19 02:57:45;;;;;;;7.88;4.60;;;;;;;7.03;93.65;101232.28;5109868;28;20491;-30
2022/05/19 03:00:17;;;;;;;9.27;4.82;;;;;;;7.08;94.26;101256.47;5091174;28;20035;-30
2022/05/19 03:02:44;;;;;;;7.70;4.40;;;;;;;7.06;94.52;101263.78;5091083;28;20092;-28
2022/05/19 03:05:12;;;;;;;9.70;5.00;;;;;;;6.87;94.78;101232.31;5091279;28;20624;-28
2022/05/19 03:07:38;;;;;;;8.40;4.70;;;;;;;6.94;94.77;101234.09;5091275;28;20123;-31
2022/05/19 03:10:04;;;;;;;8.50;5.30;;;;;;;7.01;94.40;101240.41;5091014;28;20035;-29
2022/05/19 03:12:31;;;;;;;7.90;4.65;;;;;;;7.33;92.82;101259.13;5091064;28;20059;-29
2022/05/19 03:14:57;;;;;;;9.32;4.93;;;;;;;7.24;92.33;101261.78;5108593;28;20061;-29
2022/05/19 03:17:23;;;;;;;8.23;4.70;;;;;;;7.27;91.24;101257.13;5090508;28;20024;-29
2022/05/19 03:19:52;;;;;;;9.10;4.68;;;;;;;7.33;90.98;101259.13;5109584;28;20038;-29
2022/05/19 03:22:18;;;;;;;8.43;4.07;;;;;;;7.36;91.22;101253.47;5091028;28;20030;-33
2022/05/19 03:24:43;;;;;;;9.18;4.28;;;;;;;7.37;91.85;101249.81;5109265;28;20403;-30
2022/05/19 03:27:09;;;;;;;7.22;4.22;;;;;;;7.50;91.28;101260.75;5109304;28;20024;-29
2022/05/19 03:29:34;;;;;;;6.72;4.28;;;;;;;7.53;90.72;101244.47;5090719;28;20019;-28
2022/05/19 03:32:00;;;;;;;8.63;4.07;;;;;;;7.43;91.80;101249.13;5108765;28;20465;-28
2022/05/19 03:34:25;;;;;;;6.80;4.15;;;;;;;7.41;92.53;101251.13;5108504;28;20036;-31
2022/05/19 03:36:51;;;;;;;7.47;4.47;;;;;;;7.65;93.13;101280.28;5108990;28;20446;-31
2022/05/19 03:39:18;;;;;;;7.78;4.38;;;;;;;7.70;91.86;101276.28;5090424;28;20083;-30
2022/05/19 03:41:43;;;;;;;8.02;4.05;;;;;;;7.59;91.39;101257.06;5090512;28;20036;-29
2022/05/19 03:44:09;;;;;;;6.43;4.15;;;;;;;7.53;93.11;101276.31;5108801;28;20031;-28
2022/05/19 03:46:35;;;;;;;7.13;3.97;;;;;;;7.79;92.54;101275.28;5090288;28;20043;-28
2022/05/19 03:49:01;;;;;;;7.57;4.40;;;;;;;7.74;92.92;101280.25;5090352;28;20027;-29
2022/05/19 03:51:30;;;;;;;6.35;3.60;;;;;;;7.82;93.13;101286.38;5108796;28;20037;-31
2022/05/19 03:53:56;;;;;;;8.13;4.30;;;;;;;7.91;92.58;101289.84;5090176;28;20515;-28
2022/05/19 03:56:23;;;;;;;7.43;4.03;;;;;;;8.04;92.44;101276.84;5108582;28;20528;-29
2022/05/19 03:58:49;;;;;;;8.88;4.03;;;;;;;8.01;92.49;101277.19;5090129;28;20027;-29
2022/05/19 04:01:16;;;;;;;6.78;4.25;;;;;;;7.99;93.54;101299.63;5090106;28;20016;-30
2022/05/19 04:03:42;;;;;;;7.43;4.50;;;;;;;8.04;93.49;101274.19;5090209;28;20066;-29
2022/05/19 04:06:07;;;;;;;9.65;4.40;;;;;;;8.38;93.16;101307.59;5090055;28;20051;-31
2022/05/19 04:08:33;;;;;;;7.15;3.90;;;;;;;8.36;93.42;101298.97;5108307;28;20491;-29
2022/05/19 04:10:58;;;;;;;11.23;4.28;;;;;;;8.34;93.77;101306.28;5089224;28;20459;-29
2022/05/19 04:13:24;;;;;;;8.45;4.68;;;;;;;8.40;94.17;101302.94;5108741;28;20034;-29
2022/05/19 04:15:49;;;;;;;7.88;4.47;;;;;;;8.57;94.46;101306.34;5108181;28;20031;-30
2022/05/19 04:18:15;;;;;;;6.93;4.05;;;;;;;8.63;93.80;101304.81;5090100;28;20027;-31
2022/05/19 04:20:41;;;;;;;10.02;5.00;;;;;;;8.70;94.83;101300.44;5089487;28;20088;-30
2022/05/19 04:23:07;;;;;;;11.93;4.72;;;;;;;8.78;92.76;101289.75;5089834;28;20038;-29
2022/05/19 04:25:34;;;;;;;9.40;4.82;;;;;;;8.94;93.75;101306.63;5089480;28;20031;-32
2022/05/19 04:27:59;;;;;;;7.63;4.20;;;;;;;8.83;93.86;101290.06;5089089;28;20063;-31
2022/05/19 04:30:26;;;;;;;8.73;4.25;;;;;;;9.10;93.54;101301.16;5107967;28;20050;-34
2022/05/19 04:32:52;;;;;;;6.05;4.03;;;;;;;9.08;91.97;101281.88;5107739;28;20028;-31
2022/05/19 04:35:18;;;;;;;8.70;4.30;;;;;;;9.21;91.83;101303.41;5108269;28;20571;-29
2022/05/19 04:37:43;;;;;;;7.78;4.15;;;;;;;9.29;91.15;101305.16;5089248;28;20043;-28
2022/05/19 04:40:10;;;;;;;7.70;3.85;;;;;;;9.23;92.11;101285.44;5089056;28;20055;-32
2022/05/19 04:42:37;;;;;;;9.20;4.18;;;;;;;9.33;91.81;101300.31;5089291;28;20038;-30
2022/05/19 04:45:03;;;;;;;7.03;4.10;;;;;;;9.38;92.40;101288.13;5089426;28;20411;-35
2022/05/19 04:47:28;;;;;;;6.80;4.47;;;;;;;9.64;92.23;101287.69;5089561;28;20106;-33
2022/05/19 04:49:54;;;;;;;6.80;4.20;;;;;;;9.86;90.66;101307.25;5107845;28;20563;-29
2022/05/19 04:52:20;;;;;;;7.38;4.30;;;;;;;9.81;91.23;101288.34;5089448;28;20558;-28
2022/05/19 04:54:46;;;;;;;8.65;4.20;;;;;;;9.67;92.15;101305.16;5088715;28;20145;-28
2022/05/19 04:57:11;;;;;;;5.60;3.78;;;;;;;9.93;92.15;101312.69;5107792;28;20636;-28
2022/05/19 04:59:39;;;;;;;7.35;4.20;;;;;;;10.24;91.42;101314.31;5107677;28;20031;-29
2022/05/19 05:02:05;;;;;;;7.97;4.32;;;;;;;10.20;90.76;101310.38;5107302;28;20027;-29
2022/05/19 05:04:30;;;;;;;7.07;4.30;;;;;;;10.24;92.71;101293.00;5107186;28;20035;-31
2022/05/19 05:06:56;;;;;;;6.15;4.05;;;;;;;10.35;91.12;101319.19;5107427;28;20027;-30
2022/05/19 05:09:22;;;;;;;7.70;4.68;;;;;;;10.64;92.26;101320.16;5088752;28;20038;-29
2022/05/19 05:11:48;;;;;;;9.10;4.97;;;;;;;10.65;89.95;101295.13;5088860;28;20028;-30
2022/05/19 05:14:14;;;;;;;7.15;4.55;;;;;;;10.50;89.86;101313.00;5107476;28;20027;-33
2022/05/19 05:16:39;;;;;;;8.98;5.55;;;;;;;10.75;91.58;101317.00;5088616;28;20042;-31
2022/05/19 05:19:05;;;;;;;7.75;4.15;;;;;;;10.87;89.80;101320.00;5088690;28;20035;-29
2022/05/19 05:21:31;;;;;;;6.65;4.20;;;;;;;11.04;90.20;101321.38;5071770;28;20035;-31
2022/05/19 05:23:56;;;;;;;7.13;4.10;;;;;;;11.11;87.40;101301.94;5106974;28;20038;-34
2022/05/19 05:26:22;;;;;;;7.18;3.97;;;;;;;11.09;88.16;101326.13;5107552;28;20453;-28
2022/05/19 05:28:47;;;;;;;7.47;4.03;;;;;;;11.11;88.26;101320.63;5107164;28;20063;-28
2022/05/19 05:31:13;;;;;;;7.05;3.75;;;;;;;10.93;86.88;101321.06;5107464;28;20028;-29
2022/05/19 05:33:38;;;;;;;5.95;4.13;;;;;;;11.04;86.98;101336.59;5107125;28;20031;-32
2022/05/19 05:36:04;;;;;;;6.75;3.42;;;;;;;10.71;88.66;101331.72;5107061;28;20123;-30
2022/05/19 05:38:30;;;;;;;7.47;3.88;;;;;;;10.78;90.25;101316.59;5088440;28;20035;-30
2022/05/19 05:40:55;;;;;;;6.38;3.88;;;;;;;10.96;90.13;101307.34;5111499;28;20048;-33
2022/05/19 05:43:21;;;;;;;5.75;3.70;;;;;;;11.11;87.90;101321.44;5111000;28;20407;-28
2022/05/19 05:45:48;;;;;;;5.90;3.88;;;;;;;11.08;87.60;101331.69;5110921;28;20039;-29
2022/05/19 05:48:15;;;;;;;5.65;3.40;;;;;;;11.16;88.51;101327.03;5111212;28;20031;-29
2022/05/19 05:50:41;;;;;;;9.25;4.25;;;;;;;11.08;88.79;101303.16;5092365;28;20032;-32
2022/05/19 05:53:07;;;;;;;5.88;3.58;;;;;;;11.24;87.84;101297.53;5092187;28;20066;-28
2022/05/19 05:55:35;;;;;;;7.15;3.65;;;;;;;11.46;88.70;101310.84;5092437;28;20032;-29
2022/05/19 05:58:06;;;;;;;4.95;3.38;;;;;;;11.78;86.24;101322.78;5092401;28;20031;-29
2022/05/19 06:00:32;;;;;;;5.75;3.50;;;;;;;12.10;84.95;101320.53;5110566;28;20035;-30
2022/05/19 06:02:58;;;;;;;4.97;3.42;;;;;;;12.01;84.68;101322.56;5110788;28;20024;-29
2022/05/19 06:05:23;;;;;;;5.38;3.72;;;;;;;11.72;86.08;101312.88;5110734;28;20627;-29
2022/05/19 06:07:49;;;;;;;7.43;3.65;;;;;;;12.12;87.22;101323.03;5110461;28;20066;-32
2022/05/19 06:10:14;;;;;;;7.68;3.45;;;;;;;12.11;84.58;101300.78;5110647;28;20031;-32
2022/05/19 06:12:40;;;;;;;6.97;3.42;;;;;;;12.24;84.78;101316.09;5110443;28;20465;-33
2022/05/19 06:15:08;;;;;;;9.35;3.45;;;;;;;12.53;84.64;101325.66;5092272;28;20815;-29
2022/05/19 06:17:34;;;;;;;7.95;3.92;;;;;;;12.95;84.15;101322.84;5092095;28;20024;-30
2022/05/19 06:19:59;;;;;;;6.28;2.97;;;;;;;12.74;80.20;101332.69;5110589;28;20035;-29
2022/05/19 06:22:25;;;;;;;5.63;2.80;;;;;;;12.75;81.74;101312.97;5110065;28;20043;-34
2022/05/19 06:24:51;;;;;;;6.28;2.95;;;;;;;12.79;80.60;101308.84;5110217;28;20084;-29
2022/05/19 06:27:16;;;;;;;5.40;3.15;;;;;;;12.94;82.85;101323.91;5110406;28;20035;-29
2022/05/19 06:29:42;;;;;;;6.20;3.08;;;;;;;13.11;80.67;101325.16;5110462;28;20080;-29
2022/05/19 06:32:08;;;;;;;5.70;3.42;;;;;;;13.11;80.61;101333.19;5110141;28;20088;-29
2022/05/19 06:34:34;;;;;;;5.95;3.03;;;;;;;13.18;80.09;101322.50;5091735;28;20027;-28
2022/05/19 06:36:59;;;;;;;5.85;3.30;;;;;;;13.24;79.52;101309.09;5110161;28;20038;-28
2022/05/19 06:39:24;;;;;;;6.43;3.05;;;;;;;13.52;79.12;101308.06;5110093;28;20047;-34
2022/05/19 06:42:02;;;;;;;6.65;2.53;;;;;;;13.54;77.75;101311.38;5110231;28;20028;-36
2022/05/19 06:44:33;;;;;;;5.55;2.88;;;;;;;13.61;81.85;101314.88;5091448;28;20115;-31
2022/05/19 06:46:59;;;;;;;5.25;2.90;;;;;;;13.73;80.84;101324.94;5091530;28;20028;-30
2022/05/19 06:49:25;;;;;;;5.43;3.10;;;;;;;14.07;78.37;101321.97;5090943;28;20034;-29
2022/05/19 06:51:51;;;;;;;5.90;3.08;;;;;;;14.42;76.91;101335.06;5091587;28;20028;-32
2022/05/19 06:54:16;;;;;;;5.70;3.20;;;;;;;14.89;77.38;101328.66;5091410;28;20280;-37
2022/05/19 06:56:41;;;;;;;4.97;2.80;;;;;;;14.84;75.13;101319.38;5109643;28;20517;-29
2022/05/19 06:59:07;;;;;;;6.07;2.90;;;;;;;14.55;73.88;101323.44;5109915;28;20023;-29
2022/05/19 07:01:33;;;;;;;5.47;3.05;;;;;;;14.65;76.18;101306.91;5109665;28;20024;-33
2022/05/19 07:03:59;;;;;;;3.83;2.53;;;;;;;14.62;72.03;101328.81;5090733;28;20019;-33
2022/05/19 07:06:25;;;;;;;4.50;2.67;;;;;;;14.63;68.17;101325.09;5109737;28;20027;-38
2022/05/19 07:08:52;;;;;;;5.47;2.95;;;;;;;14.97;71.67;101336.44;5091060;28;20118;-35
2022/05/19 07:11:26;;;;;;;5.22;3.10;;;;;;;15.07;70.65;101342.16;5109335;28;20407;-33
2022/05/19 07:14:05;;;;;;;4.78;2.80;;;;;;;15.24;71.49;101321.78;5109703;28;20505;-31
2022/05/19 07:16:31;;;;;;;4.93;2.40;;;;;;;15.39;71.59;101313.41;5108906;28;20035;-31
2022/05/19 07:21:45;;;;;;;4.38;2.15;;;;;;;15.27;65.92;101332.09;5109375;28;20054;-30
2022/05/19 07:24:16;;;;;;;4.22;2.17;;;;;;;15.43;67.26;101343.34;5090603;28;20084;-31
2022/05/19 07:26:46;;;;;;;4.78;1.80;;;;;;;15.44;65.67;101331.53;5090481;28;20047;-29
2022/05/19 07:29:12;;;;;;;7.22;2.08;;;;;;;15.57;65.57;101331.44;5090511;28;20028;-37
2022/05/19 07:31:38;;;;;;;5.72;2.00;;;;;;;15.70;64.38;101318.91;5090656;28;20038;-29
2022/05/19 07:34:06;;;;;;;3.33;1.90;;;;;;;15.82;66.58;101317.97;5090589;28;20023;-34
2022/05/19 07:36:32;;;;;;;5.10;2.00;;;;;;;15.76;65.82;101318.06;5090127;28;20042;-31
2022/05/19 07:38:59;;;;;;;4.10;1.95;;;;;;;16.18;62.90;101320.88;5090496;28;20273;-29
2022/05/19 07:41:26;;;;;;;4.87;1.60;;;;;;;16.16;61.80;101318.44;5108569;28;20034;-34
2022/05/19 07:43:53;;;;;;;6.72;1.83;;;;;;;16.38;62.23;101332.22;5090590;28;20019;-30
2022/05/19 07:46:19;;;;;;;4.43;1.88;;;;;;;16.56;62.59;101327.88;5090302;28;20096;-29
2022/05/19 07:48:45;;;;;;;3.45;1.70;;;;;;;16.36;60.48;101317.34;5090094;28;20028;-29
2022/05/19 07:51:11;;;;;;;2.22;1.20;;;;;;;16.44;57.21;101336.72;5090223;28;20096;-28
2022/05/19 07:53:36;;;;;;;2.65;1.50;;;;;;;16.45;55.65;101316.81;5108605;28;20035;-31
2022/05/19 07:56:03;;;;;;;4.65;1.40;;;;;;;16.97;59.59;101331.69;5108377;28;20524;-29
2022/05/19 07:58:29;;;;;;;7.30;2.00;;;;;;;17.31;57.65;101332.81;5090096;28;20023;-34
2022/05/19 08:00:56;;;;;;;3.92;1.50;;;;;;;17.57;56.48;101323.44;5108353;28;20035;-32
2022/05/19 08:03:24;;;;;;;3.28;1.42;;;;;;;17.98;52.92;101331.63;5089319;28;20181;-30
2022/05/19 08:05:50;;;;;;;3.00;1.03;;;;;;;17.48;51.01;101314.06;5108341;28;20032;-36
2022/05/19 08:08:15;;;;;;;2.90;1.35;;;;;;;17.39;56.48;101321.69;5089613;28;20031;-32
2022/05/19 08:10:40;;;;;;;3.47;1.48;;;;;;;17.55;52.14;101317.47;5107761;28;20023;-29
2022/05/19 08:15:50;;;;;;;2.83;1.40;;;;;;;17.81;54.22;101308.03;5108282;28;20109;-34
2022/05/19 08:18:18;;;;;;;5.05;1.60;;;;;;;17.73;54.50;101321.91;5089436;28;20036;-29
2022/05/19 08:20:45;;;;;;;;;;;;;;;18.25;51.39;101323.84;5089810;28;20054;-29
2022/05/19 08:23:20;;;;;;;4.07;1.53;;;;;;;17.92;50.99;101327.19;5107527;28;19922;-31
2022/05/19 08:25:46;;;;;;;6.32;1.70;;;;;;;17.75;48.21;101311.69;5107917;28;20131;-31
2022/05/19 08:28:16;;;;;;;4.75;1.75;;;;;;;18.05;50.08;101308.03;5107959;28;20035;-28
2022/05/19 08:30:48;;;;;;;3.85;1.40;;;;;;;18.37;52.33;101321.09;5108053;28;20087;-29
2022/05/19 08:33:16;;;;;;;3.28;1.42;;;;;;;18.64;53.38;101315.94;5089270;28;20484;-31
2022/05/19 08:35:43;;;;;;;3.35;1.40;;;;;;;18.38;51.16;101328.16;5107692;28;20134;-29
2022/05/19 08:38:09;;;;;;;4.43;1.70;;;;;;;18.44;48.06;101325.28;5108210;28;20035;-32
2022/05/19 08:40:57;;;;;;;3.22;1.35;;;;;;;18.63;46.73;101325.09;5088463;28;20423;-31
2022/05/19 08:43:30;;;;;;;3.10;1.20;;;;;;;18.59;47.57;101323.94;5089088;28;20491;-30
2022/05/19 08:46:00;;;;;;;3.10;1.45;;;;;;;18.99;49.71;101317.69;5089090;28;20096;-32
2022/05/19 08:48:27;;;;;;;3.00;1.45;;;;;;;19.32;49.80;101321.47;5088885;28;20032;-34
2022/05/19 08:51:06;;;;;;;8.20;1.58;;;;;;;19.04;46.60;101323.16;5089054;28;20052;-32
2022/05/19 08:53:36;;;;;;;2.28;1.42;;;;;;;19.25;47.62;101306.22;5107574;28;20032;-29
2022/05/19 08:56:15;;;;;;;2.75;1.30;;;;;;;19.35;47.33;101318.25;5089125;28;20114;-34
2022/05/19 08:58:51;;;;;;;2.05;1.40;;;;;;;19.55;45.98;101315.84;5088434;28;20063;-30
2022/05/19 09:01:31;;;;;;;3.03;1.30;;;;;;;19.87;46.66;101317.97;5089044;28;20035;-30
2022/05/19 09:04:12;;;;;;;5.43;1.20;;;;;;;19.98;39.93;101317.03;5107378;28;20054;-31
2022/05/19 09:07:56;;;;;;;2.88;1.10;;;;;;;19.85;38.92;101309.28;5088632;28;20039;-30
2022/05/19 09:09:40;;;;;;;5.38;1.20;;;;;;;19.84;38.36;101310.34;5107526;28;20040;-29
2022/05/19 09:12:10;;;;;;;3.28;1.00;;;;;;;19.55;37.55;101294.19;5089069;28;20042;-29
2022/05/19 09:14:36;;;;;;;5.90;1.20;;;;;;;19.93;38.27;101303.41;5088742;28;20027;-31
2022/05/19 09:17:06;;;;;;;3.78;1.20;;;;;;;20.26;39.98;101290.81;5088680;28;20030;-32
2022/05/19 09:19:47;;;;;;;2.90;1.20;;;;;;;19.70;35.95;101296.31;5091470;28;20028;-35
2022/05/19 09:22:15;;;;;;;2.63;1.05;;;;;;;19.41;37.57;101287.50;5086544;28;20099;-29
2022/05/19 09:24:44;;;;;;;4.03;1.42;;;;;;;20.25;37.86;101292.72;5066260;28;20059;-31
2022/05/19 09:27:10;;;;;;;2.88;0.93;;;;;;;20.28;36.60;101286.78;5081796;28;20505;-30
2022/05/19 09:29:40;;;;;;;2.55;1.77;;;;;;;20.77;37.35;101288.66;5106894;28;20028;-29
2022/05/19 09:32:16;;;;;;;2.75;0.93;;;;;;;21.06;35.90;101274.78;5105453;28;20035;-29
2022/05/19 09:34:46;;;;;;;3.67;1.30;;;;;;;21.15;38.60;101289.53;5107166;28;20039;-29
2022/05/19 09:37:14;;;;;;;2.85;1.00;;;;;;;20.73;35.14;101297.56;5088182;28;20035;-31
2022/05/19 09:40:13;;;;;;;3.50;1.20;;;;;;;20.89;37.78;101284.97;5106614;28;20052;-32
2022/05/19 09:42:56;;;;;;;1.73;1.00;;;;;;;20.75;35.17;101285.38;5087569;28;20032;-31
2022/05/19 09:45:23;;;;;;;3.25;1.10;;;;;;;20.71;34.45;101281.56;5105331;28;20032;-31
2022/05/19 09:47:52;;;;;;;3.53;1.10;;;;;;;20.37;36.88;101257.34;5088205;28;20063;-29
2022/05/19 09:50:23;;;;;;;3.25;1.30;;;;;;;20.46;35.52;101255.00;5106704;28;20086;-33
2022/05/19 09:52:48;;;;;;;2.47;1.38;;;;;;;20.95;36.29;101278.50;5087899;28;20039;-31
2022/05/19 09:55:20;;;;;;;2.75;1.20;;;;;;;21.06;33.45;101253.09;5088541;28;20032;-36
2022/05/19 09:57:56;;;;;;;7.60;1.42;;;;;;;21.21;34.78;101255.13;5088435;28;20046;-35
2022/05/19 10:00:32;;;;;;;1.20;1.02;;;;;;;21.22;33.45;101262.16;5106823;28;20028;-29
2022/05/19 10:02:59;;;;;;;3.85;1.17;;;;;;;21.10;36.61;101239.84;5104995;28;20027;-31
2022/05/19 10:05:46;;;;;;;3.50;1.13;;;;;;;21.28;37.57;101245.66;5087981;28;20544;-33
2022/05/19 10:08:20;;;;;;;2.47;1.13;;;;;;;21.82;35.44;101250.06;5106697;28;20024;-30
2022/05/19 10:11:05;;;;;;;2.72;1.30;;;;;;;21.95;30.84;101254.16;5106615;28;20384;-30
2022/05/19 10:13:39;;;;;;;2.63;1.20;;;;;;;21.93;34.94;101231.91;5087670;28;20428;-37
2022/05/19 10:16:16;;;;;;;4.38;1.52;;;;;;;21.98;30.99;101237.31;5088108;28;20124;-30
2022/05/19 10:19:17;;;;;;;2.47;1.38;;;;;;;22.22;33.94;101243.09;5104893;28;20415;-30
2022/05/19 10:21:49;;;;;;;3.28;1.20;;;;;;;22.52;35.15;101249.72;5082799;28;20059;-30
2022/05/19 10:24:48;;;;;;;6.57;3.22;;;;;;;21.97;30.34;101245.75;5105203;28;20024;-32
2022/05/19 10:33:39;;;;;;;2.63;1.50;;;;;;;22.26;34.32;101222.50;5110539;28;20042;-30
2022/05/19 10:36:28;;;;;;;3.08;1.05;;;;;;;22.60;32.48;101221.19;5108645;28;20063;-36
2022/05/19 10:39:24;;;;;;;4.00;1.30;;;;;;;22.79;33.40;101216.81;5108476;28;20079;-32
2022/05/19 10:41:59;;;;;;;3.80;1.45;;;;;;;22.27;31.13;101215.16;5109902;28;20023;-31
2022/05/19 10:44:32;;;;;;;3.42;1.63;;;;;;;22.04;33.00;101213.72;5108332;28;20031;-31
2022/05/19 10:47:08;;;;;;;2.33;1.10;;;;;;;22.51;31.74;101201.88;5108143;28;20028;-34
2022/05/19 10:49:46;;;;;;;2.00;1.27;;;;;;;22.97;29.01;101210.00;5091200;28;20635;-32
2022/05/19 10:52:37;;;;;;;4.35;1.67;;;;;;;23.07;30.38;101201.06;5109665;28;20058;-29
2022/05/19 10:55:09;;;;;;;3.33;1.05;;;;;;;22.87;32.77;101194.53;5109366;28;20030;-29
2022/05/19 10:58:01;;;;;;;2.22;1.05;;;;;;;22.80;31.29;101206.75;5091061;28;20062;-30
2022/05/19 11:00:50;;;;;;;2.30;1.20;;;;;;;23.21;29.34;101199.41;5108227;28;20419;-37
2022/05/19 11:03:37;;;;;;;3.78;1.25;;;;;;;23.67;28.54;101201.13;5107949;28;20032;-30
2022/05/19 11:06:11;;;;;;;3.40;1.23;;;;;;;23.91;31.62;101187.72;5109490;28;20080;-36
2022/05/19 11:08:49;;;;;;;2.05;0.93;;;;;;;24.38;29.07;101189.03;5109230;28;20201;-31
2022/05/19 11:11:18;;;;;;;;;;;;;;;23.34;28.06;101178.94;5108549;28;20024;-33
2022/05/19 11:13:46;;;;;;;4.75;1.25;;;;;;;23.29;30.44;101175.41;5108252;28;19907;-29
2022/05/19 11:16:21;;;;;;;4.18;1.45;;;;;;;23.41;31.24;101181.34;5107616;28;20043;-31
2022/05/19 11:18:49;;;;;;;3.92;1.08;;;;;;;23.53;31.40;101172.88;5109251;28;20118;-32
2022/05/19 11:21:31;;;;;;;4.63;1.63;;;;;;;24.00;28.07;101172.38;5107717;28;20104;-32
2022/05/19 11:24:05;;;;;;;2.20;1.05;;;;;;;24.01;28.86;101174.03;5090851;28;20027;-30
2022/05/19 11:26:44;;;;;;;6.70;1.23;;;;;;;24.45;28.91;101162.25;5107100;28;20073;-36
2022/05/19 11:29:15;;;;;;;3.10;1.15;;;;;;;24.31;30.86;101161.25;5107634;28;20023;-31
2022/05/19 11:31:53;;;;;;;3.40;1.20;;;;;;;23.92;29.50;101147.66;5107245;28;20028;-36
2022/05/19 11:34:22;;;;;;;4.25;1.20;;;;;;;24.79;30.22;101155.97;5107365;28;20122;-32
2022/05/19 11:36:54;;;;;;;1.65;1.00;;;;;;;24.83;27.45;101134.41;5107314;28;20144;-30
2022/05/19 11:39:28;;;;;;;3.08;1.20;;;;;;;25.18;27.16;101152.28;5107186;28;20579;-31
2022/05/19 11:42:00;;;;;;;2.58;0.90;;;;;;;25.66;28.58;101119.50;5106871;28;20035;-32
2022/05/19 11:44:31;;;;;;;1.83;1.05;;;;;;;25.64;26.67;101135.38;5090252;28;20027;-34
2022/05/19 11:56:18;;;;;;;3.50;1.15;;;;;;;24.82;30.02;101109.00;5093967;28;20038;-30
2022/05/19 11:58:44;;;;;;;2.50;1.10;;;;;;;24.60;29.62;101120.44;5108601;28;20080;-30
2022/05/19 12:01:25;;;;;;;2.55;0.90;;;;;;;24.93;30.87;101122.53;5108307;28;20027;-31
2022/05/19 12:04:04;;;;;;;4.18;1.00;;;;;;;25.40;26.95;101115.47;5108070;28;20417;-35